Time;durP1;ratioP1;P1;durP2;ratioP2;P2;SDS_P1;SDS_P2;PMS_P1;PMS_P2;Temp;Humidity;BMP_temperature;BMP_pressure;BME280_temperature;BME280_humidity;BME280_pressure;Samples;Min_cycle;Max_cycle;Signal;HPM_P1;HPM_P2
2024/02/22 00:01:18;;;;;;;12.13;9.20;;;10.30;99.90;;;;;;4995801;28;20776;-61
2024/02/22 00:03:46;;;;;;;14.57;10.23;;;10.40;99.90;;;;;;4997236;28;20233;-61
2024/02/22 00:06:15;;;;;;;12.47;9.97;;;10.40;99.90;;;;;;4993194;28;20708;-61
2024/02/22 00:08:44;;;;;;;11.83;9.83;;;10.40;99.90;;;;;;4994916;28;20229;-61
2024/02/22 00:11:13;;;;;;;14.23;9.87;;;10.40;99.90;;;;;;4994984;28;20197;-61
2024/02/22 00:13:42;;;;;;;13.40;10.10;;;10.40;99.90;;;;;;4993513;28;20221;-61
2024/02/22 00:16:14;;;;;;;12.03;9.23;;;10.50;99.90;;;;;;4996167;28;21521;-61
2024/02/22 00:18:46;;;;;;;13.90;9.83;;;10.50;99.90;;;;;;5001090;28;20248;-61
2024/02/22 00:21:14;;;;;;;15.17;10.03;;;10.50;99.90;;;;;;5002554;28;20225;-61
2024/02/22 00:23:42;;;;;;;13.03;10.07;;;10.50;99.90;;;;;;4991206;28;20339;-61
2024/02/22 00:26:13;;;;;;;14.70;10.50;;;10.50;99.90;;;;;;4997133;28;20201;-61
2024/02/22 00:28:41;;;;;;;14.20;10.97;;;10.50;99.90;;;;;;4993087;28;20230;-61
2024/02/22 00:31:09;;;;;;;13.67;10.40;;;10.50;99.90;;;;;;4995456;28;20229;-61
2024/02/22 00:33:39;;;;;;;12.97;10.23;;;10.50;99.90;;;;;;4994105;28;20233;-61
2024/02/22 00:36:07;;;;;;;10.37;9.27;;;10.50;99.90;;;;;;4995118;28;20284;-61
2024/02/22 00:38:36;;;;;;;12.47;10.13;;;10.50;99.90;;;;;;4997512;28;20203;-61
2024/02/22 00:41:04;;;;;;;12.57;8.97;;;10.50;99.90;;;;;;4995292;28;20199;-61
2024/02/22 00:43:33;;;;;;;14.20;8.83;;;10.50;99.90;;;;;;4996545;28;20332;-61
2024/02/22 00:46:01;;;;;;;8.97;8.00;;;10.50;99.90;;;;;;4992108;28;20698;-61
2024/02/22 00:48:30;;;;;;;14.03;8.07;;;10.50;99.90;;;;;;5007484;28;20241;-61
2024/02/22 00:51:01;;;;;;;9.97;6.93;;;10.50;99.90;;;;;;5013927;28;20228;-61
2024/02/22 00:53:29;;;;;;;10.13;6.80;;;10.50;99.90;;;;;;5012469;28;20190;-61
2024/02/22 00:55:57;;;;;;;11.80;6.40;;;10.50;99.90;;;;;;5013028;28;20194;-61
2024/02/22 00:58:26;;;;;;;12.43;6.53;;;10.50;99.90;;;;;;5019402;28;20224;-61
2024/02/22 01:00:54;;;;;;;11.87;5.87;;;10.50;99.90;;;;;;5012952;28;20241;-61
2024/02/22 01:03:22;;;;;;;11.00;6.53;;;10.60;99.90;;;;;;5014831;28;20218;-61
2024/02/22 01:05:50;;;;;;;13.30;6.30;;;10.60;99.90;;;;;;5013390;28;20236;-62
2024/02/22 01:08:20;;;;;;;12.57;5.50;;;10.60;99.90;;;;;;5014735;28;20190;-61
2024/02/22 01:10:49;;;;;;;16.40;6.23;;;10.60;99.90;;;;;;5012608;28;20269;-61
2024/02/22 01:13:17;;;;;;;15.20;5.90;;;10.60;99.90;;;;;;5015657;28;20567;-61
2024/02/22 01:15:46;;;;;;;12.67;5.60;;;10.60;99.90;;;;;;5012335;28;20826;-61
2024/02/22 01:18:14;;;;;;;16.73;6.00;;;10.60;99.90;;;;;;5010812;28;20214;-61
2024/02/22 01:20:42;;;;;;;14.17;5.50;;;10.70;99.90;;;;;;5013065;28;20432;-61
2024/02/22 01:23:10;;;;;;;13.37;5.87;;;10.60;99.90;;;;;;5010130;28;20235;-61
2024/02/22 01:25:40;;;;;;;11.53;5.27;;;10.60;99.90;;;;;;5011532;28;20770;-61
2024/02/22 01:28:12;;;;;;;15.70;5.90;;;10.70;99.90;;;;;;5018440;28;20223;-62
2024/02/22 01:30:40;;;;;;;12.70;5.93;;;10.70;99.90;;;;;;5012243;28;20222;-61
2024/02/22 01:33:08;;;;;;;16.83;7.30;;;10.70;99.90;;;;;;5014721;28;20309;-61
2024/02/22 01:35:37;;;;;;;21.53;10.10;;;10.70;99.90;;;;;;5010790;28;20224;-61
2024/02/22 01:38:05;;;;;;;29.20;14.77;;;10.60;99.90;;;;;;5018111;28;20212;-61
2024/02/22 01:40:33;;;;;;;30.50;15.53;;;10.60;99.90;;;;;;5011673;28;20226;-61
2024/02/22 01:43:03;;;;;;;44.10;23.20;;;10.60;99.90;;;;;;5015362;28;20250;-61
2024/02/22 01:45:31;;;;;;;47.90;23.60;;;10.60;99.90;;;;;;5014813;28;20229;-61
2024/02/22 01:47:59;;;;;;;37.83;19.23;;;10.60;99.90;;;;;;5013207;28;20221;-61
2024/02/22 01:50:28;;;;;;;30.50;15.00;;;10.60;99.90;;;;;;5010320;28;20195;-61
2024/02/22 01:52:57;;;;;;;16.40;9.10;;;10.60;99.90;;;;;;5011568;28;20213;-61
2024/02/22 01:55:27;;;;;;;11.60;5.80;;;10.60;99.90;;;;;;5015582;28;20593;-61
2024/02/22 01:57:55;;;;;;;14.63;5.50;;;10.60;99.90;;;;;;5003661;28;20240;-61
2024/02/22 02:00:27;;;;;;;11.27;5.00;;;10.60;99.90;;;;;;4992394;28;20229;-61
2024/02/22 02:02:56;;;;;;;11.27;4.87;;;10.60;99.90;;;;;;4993908;28;20250;-61
2024/02/22 02:05:24;;;;;;;13.70;4.53;;;10.60;99.90;;;;;;4991860;28;20209;-61
2024/02/22 02:07:52;;;;;;;16.37;4.57;;;10.60;99.90;;;;;;4992653;28;20591;-61
2024/02/22 02:10:21;;;;;;;9.97;4.47;;;10.60;99.90;;;;;;5001667;28;20239;-61
2024/02/22 02:12:49;;;;;;;7.57;3.97;;;10.60;99.90;;;;;;5001576;28;20218;-61
2024/02/22 02:15:20;;;;;;;7.57;4.03;;;10.60;99.90;;;;;;4996713;28;20232;-61
2024/02/22 02:17:49;;;;;;;11.53;3.60;;;10.50;99.90;;;;;;4993824;28;20269;-61
2024/02/22 02:20:19;;;;;;;14.80;4.07;;;10.50;99.90;;;;;;4999606;28;20268;-61
2024/02/22 02:23:06;;;;;;;15.27;4.60;;;10.50;99.90;;;;;;4994568;28;20694;-61
2024/02/22 02:25:36;;;;;;;11.70;4.03;;;10.40;99.90;;;;;;4997019;28;20226;-61
2024/02/22 02:28:05;;;;;;;11.77;4.10;;;10.50;99.90;;;;;;4998614;28;21685;-61
2024/02/22 02:30:33;;;;;;;8.77;4.17;;;10.50;99.90;;;;;;4998745;28;20217;-61
2024/02/22 02:33:01;;;;;;;14.90;4.10;;;10.50;99.90;;;;;;4999688;28;20225;-61
2024/02/22 02:35:29;;;;;;;9.37;3.70;;;10.50;99.90;;;;;;5006473;28;20208;-61
2024/02/22 02:37:58;;;;;;;9.17;4.30;;;10.40;99.90;;;;;;5000179;28;20215;-60
2024/02/22 02:40:26;;;;;;;8.63;3.97;;;10.40;99.90;;;;;;4994420;28;20225;-61
2024/02/22 02:42:56;;;;;;;12.13;4.10;;;10.40;99.90;;;;;;5005080;28;20226;-61
2024/02/22 02:45:24;;;;;;;10.27;3.87;;;10.40;99.90;;;;;;4997630;28;20226;-61
2024/02/22 02:47:52;;;;;;;12.27;3.90;;;10.40;99.90;;;;;;4993351;28;20219;-62
2024/02/22 02:50:21;;;;;;;11.00;3.80;;;10.40;99.90;;;;;;4997278;28;20191;-62
2024/02/22 02:52:51;;;;;;;13.87;3.80;;;10.40;99.90;;;;;;4995120;28;20202;-62
2024/02/22 02:55:19;;;;;;;13.43;3.70;;;10.30;99.90;;;;;;4999732;28;20226;-62
2024/02/22 02:57:48;;;;;;;12.57;4.00;;;10.40;99.90;;;;;;4995986;28;20583;-61
2024/02/22 03:00:18;;;;;;;11.83;3.70;;;10.30;99.90;;;;;;4997562;28;20221;-62
2024/02/22 03:02:46;;;;;;;8.13;3.27;;;10.30;99.90;;;;;;4995707;28;20234;-61
2024/02/22 03:05:15;;;;;;;14.73;4.07;;;10.30;99.90;;;;;;4992186;28;20286;-61
2024/02/22 03:07:43;;;;;;;11.30;3.80;;;10.30;99.90;;;;;;4989120;28;20298;-62
2024/02/22 03:10:11;;;;;;;10.90;3.40;;;10.30;99.90;;;;;;4997485;28;20640;-62
2024/02/22 03:12:39;;;;;;;5.10;3.40;;;10.20;99.90;;;;;;5005077;28;20218;-61
2024/02/22 03:15:08;;;;;;;9.87;3.37;;;10.20;99.90;;;;;;5001020;28;20223;-61
2024/02/22 03:17:38;;;;;;;21.40;3.83;;;10.20;99.90;;;;;;4995764;28;20309;-62
2024/02/22 03:20:10;;;;;;;12.67;3.93;;;10.20;99.90;;;;;;4990188;28;20217;-61
2024/02/22 03:22:39;;;;;;;11.27;4.17;;;10.20;99.90;;;;;;4989561;28;20219;-62
2024/02/22 03:25:09;;;;;;;8.87;3.20;;;10.10;99.90;;;;;;4994580;28;20242;-62
2024/02/22 03:27:38;;;;;;;13.27;3.33;;;10.10;99.90;;;;;;4990722;28;20306;-61
2024/02/22 03:30:08;;;;;;;12.97;3.70;;;10.10;99.90;;;;;;4995031;28;20225;-62
2024/02/22 03:32:38;;;;;;;12.43;3.50;;;10.10;99.90;;;;;;4990492;28;20301;-62
2024/02/22 03:35:09;;;;;;;12.57;3.60;;;10.10;99.90;;;;;;4991105;28;20285;-61
2024/02/22 03:37:43;;;;;;;12.07;3.73;;;10.10;99.90;;;;;;4985417;28;20725;-61
2024/02/22 03:40:12;;;;;;;11.10;3.40;;;10.00;99.90;;;;;;4988318;28;20219;-62
2024/02/22 03:42:40;;;;;;;11.30;3.37;;;10.00;99.90;;;;;;5002853;28;20753;-61
2024/02/22 03:45:09;;;;;;;8.60;3.20;;;10.00;99.90;;;;;;5001136;28;20226;-61
2024/02/22 03:47:39;;;;;;;10.23;2.97;;;10.00;99.90;;;;;;5009365;28;20229;-61
2024/02/22 03:50:08;;;;;;;7.33;3.17;;;10.00;99.90;;;;;;5014911;28;20202;-61
2024/02/22 03:52:37;;;;;;;10.30;3.40;;;9.90;99.90;;;;;;5012919;28;20251;-61
2024/02/22 03:55:08;;;;;;;8.30;3.33;;;9.90;99.90;;;;;;5021581;28;20217;-61
2024/02/22 03:57:36;;;;;;;9.73;3.40;;;9.90;99.90;;;;;;5017915;28;20719;-60
2024/02/22 04:00:07;;;;;;;9.63;3.43;;;9.90;99.90;;;;;;5012121;28;20230;-61
2024/02/22 04:02:35;;;;;;;9.83;3.43;;;9.90;99.90;;;;;;5014261;28;20217;-61
2024/02/22 04:05:05;;;;;;;16.07;4.10;;;9.90;99.90;;;;;;5012674;28;20213;-61
2024/02/22 04:07:34;;;;;;;14.00;3.60;;;9.90;99.90;;;;;;4975085;28;1135427;-61
2024/02/22 04:10:02;;;;;;;10.93;3.70;;;9.90;99.90;;;;;;5018643;28;20229;-61
2024/02/22 04:12:31;;;;;;;12.10;3.57;;;9.90;99.90;;;;;;5019792;28;20271;-62
2024/02/22 04:14:59;;;;;;;6.90;3.70;;;10.00;99.90;;;;;;5014431;28;20595;-62
2024/02/22 04:17:27;;;;;;;9.93;3.77;;;10.00;99.90;;;;;;5012570;28;20204;-62
2024/02/22 04:19:56;;;;;;;11.97;4.00;;;9.90;99.90;;;;;;5016158;28;21966;-62
2024/02/22 04:22:26;;;;;;;6.43;3.30;;;9.90;99.90;;;;;;5016901;28;20244;-61
2024/02/22 04:24:54;;;;;;;13.37;4.17;;;9.90;99.90;;;;;;5011761;28;20573;-62
2024/02/22 04:27:23;;;;;;;15.53;4.30;;;9.90;99.90;;;;;;5023455;28;20233;-62
2024/02/22 04:29:52;;;;;;;11.03;4.20;;;9.90;99.90;;;;;;5012846;28;20228;-62
2024/02/22 04:32:20;;;;;;;8.97;4.07;;;9.90;99.90;;;;;;5013346;28;20529;-61
2024/02/22 04:34:48;;;;;;;11.80;4.30;;;9.80;99.90;;;;;;5011294;28;20672;-61
2024/02/22 04:37:17;;;;;;;10.13;4.27;;;9.80;99.90;;;;;;5006359;28;20784;-61
2024/02/22 04:39:47;;;;;;;13.13;4.97;;;9.80;99.90;;;;;;5011964;28;20231;-61
2024/02/22 04:42:17;;;;;;;12.73;5.47;;;9.70;99.90;;;;;;5017291;28;20275;-61
2024/02/22 04:44:45;;;;;;;12.33;5.40;;;9.70;99.90;;;;;;5013438;28;20229;-61
2024/02/22 04:47:13;;;;;;;10.00;5.37;;;9.70;99.90;;;;;;5018528;28;20726;-61
2024/02/22 04:49:42;;;;;;;13.33;6.03;;;9.70;99.90;;;;;;4991778;28;20214;-61
2024/02/22 04:52:11;;;;;;;14.60;6.27;;;9.70;99.90;;;;;;5012379;28;20740;-61
2024/02/22 04:54:39;;;;;;;18.20;7.13;;;9.60;99.90;;;;;;5011809;28;20577;-61
2024/02/22 04:57:13;;;;;;;13.50;7.40;;;9.60;99.90;;;;;;5012703;28;20250;-61
2024/02/22 04:59:42;;;;;;;13.80;6.87;;;9.60;99.90;;;;;;5014679;28;20226;-61
2024/02/22 05:02:10;;;;;;;15.73;7.23;;;9.60;99.90;;;;;;5012032;28;20194;-61
2024/02/22 05:04:39;;;;;;;10.70;6.40;;;9.60;99.90;;;;;;5013973;28;20221;-61
2024/02/22 05:07:08;;;;;;;14.20;6.73;;;9.60;99.90;;;;;;5015943;28;20287;-61
2024/02/22 05:09:36;;;;;;;11.40;6.10;;;9.60;99.90;;;;;;5010740;28;20250;-61
2024/02/22 05:12:04;;;;;;;14.70;7.00;;;9.60;99.90;;;;;;5013923;28;20711;-61
2024/02/22 05:14:34;;;;;;;13.03;6.53;;;9.50;99.90;;;;;;5011835;28;20561;-61
2024/02/22 05:17:02;;;;;;;15.00;6.27;;;9.60;99.90;;;;;;5014476;28;20206;-62
2024/02/22 05:19:30;;;;;;;12.77;6.20;;;9.50;99.90;;;;;;5012141;28;20225;-61
2024/02/22 05:21:59;;;;;;;12.43;6.13;;;9.40;99.90;;;;;;5016039;28;20229;-62
2024/02/22 05:24:29;;;;;;;9.73;5.50;;;9.40;99.90;;;;;;5009337;28;20242;-62
2024/02/22 05:26:57;;;;;;;12.30;5.60;;;9.40;99.90;;;;;;5013480;28;20248;-62
2024/02/22 05:29:25;;;;;;;10.87;5.60;;;9.50;99.90;;;;;;5014163;28;20280;-62
2024/02/22 05:31:57;;;;;;;8.47;5.87;;;9.40;99.90;;;;;;5016163;28;20197;-62
2024/02/22 05:34:26;;;;;;;11.30;6.07;;;9.40;99.90;;;;;;5013182;28;20288;-62
2024/02/22 05:36:55;;;;;;;11.37;5.70;;;9.40;99.90;;;;;;5010423;28;20264;-62
2024/02/22 05:39:23;;;;;;;10.10;5.53;;;9.40;99.90;;;;;;5013731;28;20727;-61
2024/02/22 05:41:52;;;;;;;9.97;4.90;;;9.40;99.90;;;;;;5009929;28;22054;-62
2024/02/22 05:44:20;;;;;;;10.33;5.67;;;9.40;99.90;;;;;;5011132;28;20656;-62
2024/02/22 05:46:48;;;;;;;8.03;4.97;;;9.30;99.90;;;;;;5016119;28;20248;-61
2024/02/22 05:49:18;;;;;;;9.23;5.13;;;9.20;99.90;;;;;;5013675;28;20243;-62
2024/02/22 05:51:46;;;;;;;12.20;5.60;;;9.20;99.90;;;;;;5008767;28;20241;-62
2024/02/22 05:54:15;;;;;;;9.33;4.93;;;9.10;99.90;;;;;;5012845;28;20233;-62
2024/02/22 05:56:44;;;;;;;8.80;4.97;;;9.10;99.90;;;;;;5013645;28;20248;-62
2024/02/22 05:59:12;;;;;;;5.20;4.70;;;9.10;99.90;;;;;;5009124;28;20198;-62
2024/02/22 06:01:40;;;;;;;13.43;5.23;;;9.10;99.90;;;;;;5007655;28;20221;-62
2024/02/22 06:04:09;;;;;;;11.83;5.07;;;9.10;99.90;;;;;;5011591;28;20214;-61
2024/02/22 06:06:38;;;;;;;8.23;4.67;;;9.00;99.90;;;;;;5012461;28;20240;-61
2024/02/22 06:09:08;;;;;;;8.80;4.67;;;9.00;99.90;;;;;;5013919;28;20268;-61
2024/02/22 06:11:36;;;;;;;10.50;5.20;;;9.00;99.90;;;;;;5012260;28;20205;-62
2024/02/22 06:14:05;;;;;;;8.47;5.07;;;9.00;99.90;;;;;;5013144;28;20834;-62
2024/02/22 06:16:33;;;;;;;9.60;5.67;;;9.00;99.90;;;;;;4994530;28;20227;-62
2024/02/22 06:19:01;;;;;;;9.57;4.90;;;9.00;99.90;;;;;;5005926;28;20317;-62
2024/02/22 06:21:29;;;;;;;15.93;5.83;;;9.00;99.90;;;;;;5013307;28;20241;-61
2024/02/22 06:23:59;;;;;;;11.63;6.03;;;8.90;99.90;;;;;;5005489;28;20218;-61
2024/02/22 06:26:33;;;;;;;17.53;5.93;;;8.90;99.90;;;;;;5009641;28;20198;-62
2024/02/22 06:29:01;;;;;;;10.43;5.63;;;8.80;99.90;;;;;;5016552;28;20200;-61
2024/02/22 06:31:30;;;;;;;5.80;5.17;;;8.80;99.90;;;;;;5012344;28;20226;-61
2024/02/22 06:33:58;;;;;;;9.40;5.27;;;8.70;99.90;;;;;;5011712;28;20569;-61
2024/02/22 06:36:28;;;;;;;15.20;5.73;;;8.70;99.90;;;;;;5009407;28;20229;-61
2024/02/22 06:38:56;;;;;;;165.40;17.83;;;8.70;99.90;;;;;;5011111;28;20222;-61
2024/02/22 06:41:26;;;;;;;74.33;10.50;;;8.60;99.90;;;;;;5003313;28;20276;-61
2024/02/22 06:43:56;;;;;;;207.27;23.93;;;8.60;99.90;;;;;;5005009;28;20209;-62
2024/02/22 06:46:26;;;;;;;134.73;16.93;;;8.60;99.90;;;;;;5005083;28;20229;-61
2024/02/22 06:48:57;;;;;;;15.43;6.97;;;8.60;99.90;;;;;;5010575;28;20229;-62
2024/02/22 06:51:26;;;;;;;12.70;6.50;;;8.60;99.90;;;;;;5015195;28;20233;-62
2024/02/22 06:53:54;;;;;;;13.70;6.80;;;8.50;99.90;;;;;;5013659;28;20225;-63
2024/02/22 06:56:23;;;;;;;10.70;6.70;;;8.50;99.90;;;;;;5008055;28;20191;-62
2024/02/22 06:58:53;;;;;;;8.70;6.80;;;8.50;99.90;;;;;;5017188;28;20198;-62
2024/02/22 07:01:21;;;;;;;12.80;7.00;;;8.50;99.90;;;;;;5013459;28;20224;-63
2024/02/22 07:03:49;;;;;;;19.87;8.23;;;8.40;99.90;;;;;;5006457;28;20276;-61
2024/02/22 07:06:19;;;;;;;16.03;8.60;;;8.40;99.90;;;;;;5013156;28;20241;-63
2024/02/22 07:08:48;;;;;;;19.43;8.00;;;8.50;99.90;;;;;;5015453;28;20637;-62
2024/02/22 07:11:17;;;;;;;12.43;7.07;;;8.50;99.90;;;;;;5015080;28;20205;-62
2024/02/22 07:13:46;;;;;;;13.60;7.87;;;8.50;99.90;;;;;;5016331;28;20210;-61
2024/02/22 07:16:17;;;;;;;14.03;7.20;;;8.50;99.90;;;;;;5014621;28;20226;-61
2024/02/22 07:18:46;;;;;;;12.93;6.93;;;8.60;99.90;;;;;;5014423;28;20230;-62
2024/02/22 07:21:15;;;;;;;11.73;6.90;;;8.60;99.90;;;;;;5011067;28;20229;-63
2024/02/22 07:23:44;;;;;;;13.20;7.30;;;8.60;99.90;;;;;;5002973;28;20237;-63
2024/02/22 07:26:12;;;;;;;14.47;7.47;;;8.60;99.90;;;;;;5015193;28;20202;-63
2024/02/22 07:28:41;;;;;;;17.07;7.57;;;8.60;99.90;;;;;;5011643;28;20222;-63
2024/02/22 07:31:09;;;;;;;16.17;7.90;;;8.60;99.90;;;;;;5010154;28;20217;-60
2024/02/22 07:33:39;;;;;;;10.00;7.13;;;8.70;99.90;;;;;;5015915;28;20245;-63
2024/02/22 07:36:08;;;;;;;10.23;6.60;;;8.70;99.90;;;;;;5017969;28;20222;-62
2024/02/22 07:38:38;;;;;;;12.83;6.53;;;8.70;99.90;;;;;;5013069;28;20426;-60
2024/02/22 07:41:08;;;;;;;11.10;6.90;;;8.70;99.90;;;;;;5017434;28;20463;-62
2024/02/22 07:43:36;;;;;;;9.93;7.13;;;8.80;99.90;;;;;;5015083;28;20553;-63
2024/02/22 07:46:05;;;;;;;9.00;6.30;;;8.80;99.90;;;;;;5014080;28;20929;-62
2024/02/22 07:48:33;;;;;;;11.97;6.00;;;8.90;99.90;;;;;;5012843;28;20264;-63
2024/02/22 07:51:03;;;;;;;11.70;6.77;;;8.90;99.90;;;;;;5019174;28;20255;-62
2024/02/22 07:53:34;;;;;;;22.03;7.07;;;9.00;99.90;;;;;;5018596;28;20200;-63
2024/02/22 07:56:04;;;;;;;13.80;6.60;;;9.00;99.90;;;;;;5016220;28;20194;-63
2024/02/22 07:58:45;;;;;;;17.43;6.90;;;9.10;99.90;;;;;;5019673;28;20312;-62
2024/02/22 08:01:14;;;;;;;20.10;7.27;;;9.10;99.90;;;;;;5012621;28;20224;-62
2024/02/22 08:03:44;;;;;;;16.47;6.90;;;9.20;99.90;;;;;;5011788;28;20546;-60
2024/02/22 08:06:14;;;;;;;17.07;7.90;;;9.20;99.90;;;;;;5010382;28;21690;-63
2024/02/22 08:08:43;;;;;;;17.13;8.30;;;9.30;99.90;;;;;;5018427;28;20616;-63
2024/02/22 08:11:11;;;;;;;20.97;8.63;;;9.30;99.90;;;;;;5010279;28;20194;-63
2024/02/22 08:13:40;;;;;;;25.23;9.17;;;9.50;99.90;;;;;;5017837;28;20291;-63
2024/02/22 08:16:10;;;;;;;23.97;9.13;;;9.60;99.90;;;;;;5019738;28;20269;-63
2024/02/22 08:18:40;;;;;;;25.60;9.40;;;9.60;99.90;;;;;;5016937;28;20612;-62
2024/02/22 08:21:09;;;;;;;25.63;9.57;;;9.70;99.90;;;;;;5009766;28;20583;-63
2024/02/22 08:23:39;;;;;;;31.83;10.90;;;9.70;99.90;;;;;;5007972;28;20237;-63
2024/02/22 08:26:08;;;;;;;35.13;11.70;;;9.80;99.90;;;;;;5013187;28;20206;-62
2024/02/22 08:28:36;;;;;;;32.60;12.67;;;9.90;99.90;;;;;;5012078;28;20240;-62
2024/02/22 08:31:04;;;;;;;43.07;14.87;;;9.80;99.90;;;;;;5018157;28;20225;-62
2024/02/22 08:33:33;;;;;;;50.10;17.83;;;9.90;99.90;;;;;;5013738;28;20566;-63
2024/02/22 08:36:02;;;;;;;41.37;16.10;;;10.00;99.90;;;;;;5012870;28;20232;-63
2024/02/22 08:38:30;;;;;;;40.67;15.23;;;10.00;99.90;;;;;;5015325;28;20190;-62
2024/02/22 08:40:59;;;;;;;25.17;12.27;;;10.10;99.90;;;;;;5012091;28;20241;-62
2024/02/22 08:43:28;;;;;;;26.13;12.00;;;10.10;99.90;;;;;;5010742;28;20225;-63
2024/02/22 08:45:57;;;;;;;21.47;11.30;;;10.20;99.90;;;;;;5016078;28;20228;-63
2024/02/22 08:48:26;;;;;;;20.13;10.57;;;10.30;99.90;;;;;;5011672;28;20322;-62
2024/02/22 08:50:57;;;;;;;17.17;10.10;;;10.40;99.90;;;;;;5010542;28;20751;-63
2024/02/22 08:53:25;;;;;;;16.40;9.93;;;10.60;99.90;;;;;;5012085;28;20268;-63
2024/02/22 08:55:54;;;;;;;15.20;9.23;;;10.60;99.90;;;;;;5019275;28;20223;-63
2024/02/22 08:58:25;;;;;;;14.93;9.50;;;10.60;99.90;;;;;;5011904;28;20252;-63
2024/02/22 09:00:53;;;;;;;19.17;10.80;;;10.70;99.90;;;;;;5004699;28;20229;-60
2024/02/22 09:03:21;;;;;;;15.07;9.57;;;10.80;99.90;;;;;;5011450;28;20221;-63
2024/02/22 09:05:50;;;;;;;19.63;10.23;;;10.80;99.90;;;;;;5011478;28;20316;-63
2024/02/22 09:08:18;;;;;;;19.50;9.83;;;10.90;99.90;;;;;;5010601;28;20221;-63
2024/02/22 09:10:47;;;;;;;17.23;8.10;;;11.20;99.90;;;;;;5011406;28;20193;-63
2024/02/22 09:13:16;;;;;;;12.07;7.83;;;11.30;99.90;;;;;;5008752;28;20597;-60
2024/02/22 09:15:49;;;;;;;13.27;8.13;;;11.40;99.90;;;;;;5013139;28;20233;-61
2024/02/22 09:18:18;;;;;;;14.30;7.13;;;11.40;99.90;;;;;;5014924;28;20237;-62
2024/02/22 09:20:48;;;;;;;13.07;7.13;;;11.50;99.90;;;;;;5014933;28;20225;-61
2024/02/22 09:23:17;;;;;;;10.03;6.93;;;11.50;99.90;;;;;;5007483;28;20205;-62
2024/02/22 09:25:46;;;;;;;10.43;6.33;;;11.40;99.90;;;;;;5009838;28;20222;-61
2024/02/22 09:28:15;;;;;;;12.47;6.77;;;11.30;99.90;;;;;;5011714;28;20601;-62
2024/02/22 09:30:45;;;;;;;11.90;6.27;;;11.30;99.90;;;;;;5015858;28;20220;-62
2024/02/22 09:33:13;;;;;;;13.50;7.20;;;11.40;99.90;;;;;;5024091;28;20241;-62
2024/02/22 09:35:45;;;;;;;10.03;6.90;;;11.30;99.90;;;;;;5011875;28;20254;-62
2024/02/22 09:38:13;;;;;;;12.03;7.37;;;11.40;99.90;;;;;;5014431;28;20220;-62
2024/02/22 09:40:42;;;;;;;12.17;7.23;;;11.30;99.90;;;;;;5013446;28;20446;-62
2024/02/22 09:43:10;;;;;;;16.17;7.40;;;11.30;99.90;;;;;;5013310;28;20225;-61
2024/02/22 09:45:39;;;;;;;12.43;7.10;;;11.30;99.90;;;;;;5014336;28;20568;-61
2024/02/22 09:48:09;;;;;;;12.73;7.17;;;11.30;99.90;;;;;;5010550;28;20225;-62
2024/02/22 09:50:38;;;;;;;10.90;7.10;;;11.30;99.90;;;;;;5016368;28;21635;-61
2024/02/22 09:53:07;;;;;;;9.23;6.63;;;11.40;99.90;;;;;;5016753;28;20194;-61
2024/02/22 09:55:36;;;;;;;8.60;6.13;;;11.50;99.90;;;;;;5010513;28;20272;-61
2024/02/22 09:58:05;;;;;;;8.30;5.67;;;11.50;99.90;;;;;;4997748;28;20230;-62
2024/02/22 10:00:33;;;;;;;6.60;5.17;;;11.50;99.90;;;;;;4995812;28;20218;-62
2024/02/22 10:03:04;;;;;;;5.40;4.33;;;11.60;99.90;;;;;;4992206;28;20236;-61
2024/02/22 10:05:40;;;;;;;6.97;4.80;;;11.60;99.90;;;;;;4989518;28;20195;-62
2024/02/22 10:08:13;;;;;;;5.37;4.07;;;11.60;99.90;;;;;;4993631;28;20206;-61
2024/02/22 10:10:43;;;;;;;6.10;3.37;;;11.70;99.90;;;;;;4992102;28;20214;-61
2024/02/22 10:13:20;;;;;;;4.93;3.70;;;11.70;99.90;;;;;;5000997;28;20332;-61
2024/02/22 10:15:49;;;;;;;2.50;2.33;;;11.80;99.90;;;;;;4993654;28;20214;-61
2024/02/22 10:18:25;;;;;;;3.00;2.33;;;11.80;99.90;;;;;;4993532;28;20236;-62
2024/02/22 10:20:55;;;;;;;4.17;2.33;;;11.90;99.90;;;;;;4993716;28;20229;-61
2024/02/22 10:23:23;;;;;;;2.20;2.10;;;11.90;99.90;;;;;;4984661;28;20649;-62
2024/02/22 10:26:03;;;;;;;1.70;1.70;;;11.90;99.90;;;;;;4994407;28;20202;-61
2024/02/22 10:28:31;;;;;;;1.70;1.60;;;12.00;99.90;;;;;;4999309;28;20229;-61
2024/02/22 10:31:03;;;;;;;3.60;1.57;;;12.10;99.90;;;;;;4992423;28;20226;-61
2024/02/22 10:33:31;;;;;;;2.10;1.77;;;12.10;99.90;;;;;;4991228;28;20223;-61
2024/02/22 10:36:02;;;;;;;1.60;1.60;;;12.20;99.90;;;;;;4999871;28;20268;-62
2024/02/22 10:38:31;;;;;;;1.40;1.40;;;12.30;99.90;;;;;;4998701;28;20278;-61
2024/02/22 10:41:01;;;;;;;1.43;1.43;;;12.40;99.90;;;;;;5004472;28;20222;-61
2024/02/22 10:43:30;;;;;;;1.57;1.53;;;12.50;99.90;;;;;;4984878;28;20226;-62
2024/02/22 10:46:02;;;;;;;1.60;1.60;;;12.60;99.90;;;;;;4988039;28;20253;-61
2024/02/22 10:48:34;;;;;;;1.50;1.50;;;12.70;99.90;;;;;;5003679;28;20226;-61
2024/02/22 10:51:06;;;;;;;1.70;1.60;;;12.80;99.90;;;;;;5021076;28;20225;-62
2024/02/22 10:53:37;;;;;;;1.60;1.60;;;12.80;99.90;;;;;;5019670;28;20561;-62
2024/02/22 10:56:07;;;;;;;1.63;1.53;;;12.80;99.90;;;;;;5019227;28;20730;-62
2024/02/22 10:58:39;;;;;;;1.60;1.60;;;12.90;99.90;;;;;;5014194;28;20221;-62
2024/02/22 11:01:10;;;;;;;2.73;1.70;;;13.00;99.90;;;;;;5014896;28;20218;-63
2024/02/22 11:03:40;;;;;;;1.73;1.73;;;13.10;99.90;;;;;;5017598;28;20264;-62
2024/02/22 11:06:09;;;;;;;1.60;1.60;;;13.10;99.90;;;;;;5020381;28;20240;-62
2024/02/22 11:08:49;;;;;;;2.10;2.00;;;13.10;99.90;;;;;;5007397;28;20371;-62
2024/02/22 11:11:26;;;;;;;1.60;1.60;;;13.10;99.90;;;;;;5013122;28;20192;-60
2024/02/22 11:13:59;;;;;;;1.60;1.60;;;13.20;99.90;;;;;;5012729;28;20288;-62
2024/02/22 11:16:34;;;;;;;1.50;1.40;;;13.20;99.90;;;;;;4997408;28;20227;-62
2024/02/22 11:19:09;;;;;;;1.70;1.60;;;13.30;99.90;;;;;;4997456;28;20659;-62
2024/02/22 11:21:39;;;;;;;1.47;1.47;;;13.40;99.90;;;;;;4996847;28;20322;-62
2024/02/22 11:24:10;;;;;;;1.30;1.30;;;13.40;99.90;;;;;;4987894;28;20225;-62
2024/02/22 11:26:40;;;;;;;1.60;1.60;;;13.40;99.90;;;;;;4995200;28;20226;-62
2024/02/22 11:29:09;;;;;;;1.40;1.40;;;13.50;99.90;;;;;;4995330;28;20211;-62
2024/02/22 11:31:38;;;;;;;1.40;1.40;;;13.50;99.90;;;;;;4995987;28;20297;-62
2024/02/22 11:34:06;;;;;;;1.47;1.37;;;13.60;99.90;;;;;;4991356;28;20234;-62
2024/02/22 11:36:34;;;;;;;1.30;1.30;;;13.60;99.90;;;;;;4986772;28;20235;-61
2024/02/22 11:39:06;;;;;;;1.53;1.43;;;13.60;99.90;;;;;;4988387;28;20249;-62
2024/02/22 11:41:35;;;;;;;1.20;1.20;;;13.70;99.90;;;;;;4993604;28;20206;-62
2024/02/22 11:44:07;;;;;;;2.43;1.37;;;13.60;99.90;;;;;;4997538;28;20195;-62
2024/02/22 11:46:37;;;;;;;1.30;1.30;;;13.60;99.90;;;;;;4987465;28;20230;-62
2024/02/22 11:49:06;;;;;;;1.37;1.37;;;13.60;99.90;;;;;;4993135;28;20230;-61
2024/02/22 11:51:35;;;;;;;1.40;1.40;;;13.60;99.90;;;;;;4994032;28;20235;-62
2024/02/22 11:54:05;;;;;;;1.20;1.20;;;13.60;99.90;;;;;;5001730;28;20250;-62
2024/02/22 11:56:33;;;;;;;1.93;1.23;;;13.60;99.90;;;;;;4986907;28;20304;-62
2024/02/22 11:59:02;;;;;;;1.50;1.50;;;13.70;99.90;;;;;;4991399;28;20198;-61
2024/02/22 12:01:31;;;;;;;1.60;1.50;;;13.70;99.90;;;;;;4994182;28;20234;-62
2024/02/22 12:04:00;;;;;;;1.37;1.37;;;13.80;99.90;;;;;;5009789;28;20717;-61
2024/02/22 12:06:29;;;;;;;1.50;1.50;;;13.80;99.90;;;;;;5015457;28;20804;-62
2024/02/22 12:08:58;;;;;;;1.33;1.33;;;13.80;99.90;;;;;;5012190;28;20585;-62
2024/02/22 12:11:28;;;;;;;1.40;1.30;;;13.90;99.90;;;;;;5014043;28;20207;-62
2024/02/22 12:13:57;;;;;;;1.37;1.30;;;13.80;99.90;;;;;;5009536;28;20281;-62
2024/02/22 12:16:26;;;;;;;1.47;1.47;;;13.90;99.90;;;;;;5013055;28;20252;-62
2024/02/22 12:18:55;;;;;;;1.40;1.40;;;13.90;99.90;;;;;;5005202;28;20233;-62
2024/02/22 12:21:26;;;;;;;1.43;1.40;;;13.90;99.90;;;;;;5012410;28;20276;-62
2024/02/22 12:24:00;;;;;;;1.87;1.80;;;13.90;99.90;;;;;;5016154;28;20230;-62
2024/02/22 12:26:29;;;;;;;1.30;1.30;;;13.90;99.90;;;;;;5006437;28;20278;-62
2024/02/22 12:28:57;;;;;;;1.20;1.20;;;14.00;99.90;;;;;;5010368;28;20310;-62
2024/02/22 12:31:27;;;;;;;1.30;1.30;;;14.10;99.90;;;;;;5012187;28;20312;-63
2024/02/22 12:33:59;;;;;;;1.27;1.20;;;14.40;99.90;;;;;;5010411;28;20315;-62
2024/02/22 12:36:29;;;;;;;1.10;1.10;;;14.20;99.90;;;;;;5000753;28;20270;-62
2024/02/22 12:38:57;;;;;;;1.33;1.33;;;14.00;99.90;;;;;;5016170;28;20222;-62
2024/02/22 12:41:29;;;;;;;1.50;1.20;;;13.90;99.90;;;;;;5013268;28;20285;-62
2024/02/22 12:43:57;;;;;;;1.30;1.30;;;13.80;99.90;;;;;;5020766;28;20206;-62
2024/02/22 12:46:27;;;;;;;1.60;1.50;;;13.70;99.90;;;;;;5018361;28;20210;-62
2024/02/22 12:48:56;;;;;;;1.43;1.43;;;13.60;99.90;;;;;;5016259;28;20222;-62
2024/02/22 12:51:24;;;;;;;1.40;1.40;;;13.50;99.90;;;;;;5011129;28;20231;-62
2024/02/22 12:53:52;;;;;;;1.57;1.47;;;13.50;99.90;;;;;;5010848;28;20222;-62